createdAt,value
2019-01-21T00:00:34.084Z,579.30
2019-01-21T00:03:06.339Z,554.10
2019-01-21T00:05:36.263Z,571.57
2019-01-21T00:08:06.698Z,565.63
2019-01-21T00:10:37.561Z,573.20
2019-01-21T00:13:07.592Z,579.07
2019-01-21T00:15:38.023Z,559.83
2019-01-21T00:18:08.384Z,589.67
2019-01-21T00:20:38.578Z,577.67
2019-01-21T00:23:08.656Z,584.73
2019-01-21T00:25:38.536Z,579.10
2019-01-21T00:28:08.774Z,582.90
2019-01-21T00:30:39.108Z,569.50
2019-01-21T00:33:09.570Z,587.07
2019-01-21T00:35:39.878Z,573.60
2019-01-21T00:38:09.765Z,581.03
2019-01-21T00:40:39.788Z,596.13
2019-01-21T00:43:09.824Z,584.30
2019-01-21T00:45:39.962Z,586.97
2019-01-21T00:48:09.861Z,568.63
2019-01-21T00:50:39.731Z,566.37
2019-01-21T00:53:09.618Z,573.83
2019-01-21T00:55:39.895Z,580.77
2019-01-21T00:58:09.779Z,594.40
2019-01-21T01:00:39.699Z,599.33
2019-01-21T01:03:09.851Z,590.00
2019-01-21T01:05:39.789Z,591.23
2019-01-21T01:08:10.811Z,582.13
2019-01-21T01:10:42.129Z,594.50
2019-01-21T01:13:12.213Z,571.30
2019-01-21T01:15:43.451Z,580.63
2019-01-21T01:18:13.542Z,595.63
2019-01-21T01:20:43.821Z,600.57
2019-01-21T01:23:13.778Z,610.93
2019-01-21T01:25:43.720Z,590.57
2019-01-21T01:28:13.663Z,597.07
2019-01-21T01:30:43.771Z,592.53
2019-01-21T01:33:14.250Z,603.20
2019-01-21T01:35:44.213Z,587.50
2019-01-21T01:38:14.106Z,572.27
2019-01-21T01:40:44.820Z,608.97
2019-01-21T01:43:14.739Z,609.87
2019-01-21T01:45:44.921Z,593.67
2019-01-21T01:48:16.022Z,580.60
2019-01-21T01:50:45.957Z,588.27
2019-01-21T01:53:16.048Z,587.57
2019-01-21T01:55:46.491Z,584.17
2019-01-21T01:58:16.461Z,580.80
2019-01-21T02:00:46.496Z,609.73
2019-01-21T02:03:18.098Z,584.50
2019-01-21T02:05:48.075Z,589.93
2019-01-21T02:08:18.576Z,590.37
2019-01-21T02:10:48.534Z,604.20
2019-01-21T02:13:18.369Z,582.83
2019-01-21T02:15:48.394Z,601.97
2019-01-21T02:18:18.284Z,589.23
2019-01-21T02:20:51.314Z,599.73
2019-01-21T02:23:23.674Z,572.33
2019-01-21T02:25:54.709Z,584.70
2019-01-21T02:28:33.514Z,554.63
2019-01-21T02:31:22.771Z,581.83
2019-01-21T02:34:12.365Z,552.70
2019-01-21T02:36:58.483Z,575.43
2019-01-21T02:42:24.284Z,582.10
2019-01-21T02:45:12.168Z,577.63
2019-01-21T02:48:00.117Z,584.23
2019-01-21T02:50:34.723Z,569.93
2019-01-21T02:53:28.235Z,585.27
2019-01-21T02:56:04.402Z,590.63
2019-01-21T02:59:10.675Z,576.63
2019-01-21T03:01:52.956Z,572.87
2019-01-21T03:04:34.199Z,573.00
2019-01-21T03:07:25.157Z,566.87
2019-01-21T03:10:01.015Z,566.23
2019-01-21T03:12:51.766Z,558.20
2019-01-21T03:15:42.692Z,572.93
2019-01-21T03:18:30.235Z,565.77
2019-01-21T03:21:34.362Z,564.00
2019-01-21T03:24:24.053Z,538.80
2019-01-21T03:27:05.759Z,548.70
2019-01-21T03:30:01.236Z,546.07
2019-01-21T03:33:00.915Z,519.93
2019-01-21T03:35:34.235Z,498.10
2019-01-21T03:38:23.522Z,434.10
2019-01-21T03:41:13.843Z,410.80
2019-01-21T03:43:52.570Z,329.87
2019-01-21T03:46:33.910Z,322.63
2019-01-21T03:49:07.179Z,282.03
2019-01-21T03:51:57.975Z,288.87
2019-01-21T03:54:29.102Z,276.87
2019-01-21T03:57:05.159Z,262.47
2019-01-21T03:59:43.909Z,247.63
2019-01-21T04:02:22.839Z,232.23
2019-01-21T04:05:01.627Z,224.37
2019-01-21T04:07:51.345Z,246.20
2019-01-21T04:10:40.960Z,180.70
2019-01-21T04:13:22.616Z,231.47
2019-01-21T04:16:10.781Z,246.43
2019-01-21T04:18:52.653Z,267.63
2019-01-21T04:21:37.713Z,259.27
2019-01-21T04:24:10.840Z,271.03
2019-01-21T04:26:44.015Z,297.27
2019-01-21T04:29:16.977Z,279.33
2019-01-21T04:31:53.064Z,291.87
2019-01-21T04:34:29.299Z,269.37
2019-01-21T04:37:11.174Z,255.20
2019-01-21T04:39:51.301Z,245.20
2019-01-21T04:42:42.781Z,248.13
2019-01-21T04:45:30.118Z,241.90
2019-01-21T04:48:09.684Z,258.37
2019-01-21T04:51:12.547Z,267.20
2019-01-21T04:53:57.661Z,230.00
2019-01-21T04:56:33.537Z,252.00
2019-01-21T04:59:09.061Z,232.93
2019-01-21T05:01:47.863Z,241.80
2019-01-21T05:04:35.738Z,253.83
2019-01-21T05:07:08.717Z,239.20
2019-01-21T05:09:56.018Z,251.57
2019-01-21T05:12:36.137Z,254.27
2019-01-21T05:15:25.543Z,253.90
2019-01-21T05:18:13.719Z,240.07
2019-01-21T05:20:49.745Z,231.90
2019-01-21T05:23:44.112Z,243.43
2019-01-21T05:26:19.857Z,254.63
2019-01-21T05:28:53.282Z,247.13
2019-01-21T05:31:39.502Z,250.60
2019-01-21T05:34:30.299Z,244.70
2019-01-21T05:37:05.927Z,285.53
2019-01-21T05:39:50.621Z,263.43
2019-01-21T05:42:49.236Z,267.90
2019-01-21T05:45:38.457Z,235.70
2019-01-21T05:48:28.062Z,232.10
2019-01-21T05:51:09.378Z,234.53
2019-01-21T05:54:00.462Z,234.90
2019-01-21T05:56:40.164Z,240.33
2019-01-21T05:59:33.870Z,283.70
2019-01-21T06:02:25.346Z,241.37
2019-01-21T06:05:00.857Z,253.10
2019-01-21T06:07:48.497Z,253.83
2019-01-21T06:10:27.290Z,254.17
2019-01-21T06:13:02.743Z,247.43
2019-01-21T06:15:44.653Z,249.50
2019-01-21T06:18:20.155Z,233.10
2019-01-21T06:21:22.458Z,248.53
2019-01-21T06:24:06.947Z,260.60
2019-01-21T06:27:02.403Z,274.97
2019-01-21T06:29:36.525Z,270.63
2019-01-21T06:32:28.852Z,283.93
2019-01-21T06:35:07.955Z,253.87
2019-01-21T06:37:59.278Z,261.70
2019-01-21T06:40:53.352Z,269.20
2019-01-21T06:43:32.259Z,248.50
2019-01-21T06:46:24.534Z,249.83
2019-01-21T06:49:21.096Z,257.43
2019-01-21T06:52:01.044Z,241.00
2019-01-21T06:54:37.448Z,250.57
2019-01-21T06:57:16.692Z,283.60
2019-01-21T07:00:10.478Z,243.83
2019-01-21T07:03:05.860Z,249.23
2019-01-21T07:05:58.740Z,257.70
2019-01-21T07:08:31.725Z,268.57
2019-01-21T07:11:10.542Z,256.57
2019-01-21T07:13:51.608Z,272.27
2019-01-21T07:16:47.606Z,270.63
2019-01-21T07:19:35.811Z,240.70
2019-01-21T07:22:46.184Z,288.23
2019-01-21T07:25:35.649Z,278.10
2019-01-21T07:28:08.774Z,234.57
2019-01-21T07:31:02.720Z,282.77
2019-01-21T07:34:07.545Z,303.00
2019-01-21T07:36:41.371Z,280.20
2019-01-21T07:39:14.300Z,291.13
2019-01-21T07:42:10.674Z,288.30
2019-01-21T07:44:58.208Z,277.43
2019-01-21T07:47:36.697Z,297.17
2019-01-21T07:50:23.965Z,292.87
2019-01-21T07:53:05.607Z,276.50
2019-01-21T07:56:02.830Z,296.70
2019-01-21T07:58:51.511Z,283.27
2019-01-21T08:01:42.229Z,283.53
2019-01-21T08:04:32.432Z,301.73
2019-01-21T08:07:20.913Z,305.90
2019-01-21T08:09:59.135Z,271.37
2019-01-21T08:12:50.595Z,270.67
2019-01-21T08:15:35.473Z,277.10
2019-01-21T08:18:32.968Z,292.23
2019-01-21T08:21:24.070Z,250.87
2019-01-21T08:24:05.937Z,281.23
2019-01-21T08:26:57.990Z,287.30
2019-01-21T08:29:39.610Z,332.60
2019-01-21T08:32:18.787Z,345.33
2019-01-21T08:34:52.096Z,316.47
2019-01-21T08:37:41.408Z,316.87
2019-01-21T08:40:23.683Z,290.00
2019-01-21T08:43:16.724Z,328.40
2019-01-21T08:46:07.552Z,319.67
2019-01-21T08:48:54.511Z,271.07
2019-01-21T08:51:51.941Z,271.23
2019-01-21T08:54:30.857Z,303.40
2019-01-21T08:57:12.849Z,269.90
2019-01-21T08:59:46.524Z,262.20
2019-01-21T09:02:31.777Z,252.53
2019-01-21T09:05:28.579Z,281.50
2019-01-21T09:08:13.715Z,280.33
2019-01-21T09:11:06.459Z,318.03
2019-01-21T09:13:56.207Z,290.73
2019-01-21T09:16:50.426Z,261.03
2019-01-21T09:19:44.617Z,279.53
2019-01-21T09:22:34.449Z,269.50
2019-01-21T09:25:15.187Z,276.83
2019-01-21T09:27:49.078Z,251.40
2019-01-21T09:30:37.329Z,252.93
2019-01-21T09:33:17.875Z,229.67
2019-01-21T09:36:13.459Z,237.37
2019-01-21T09:39:14.333Z,261.20
2019-01-21T09:42:05.418Z,296.73
2019-01-21T09:44:38.887Z,310.20
2019-01-21T09:47:09.100Z,331.67
2019-01-21T09:49:43.791Z,321.13
2019-01-21T09:52:17.862Z,330.97
2019-01-21T09:54:56.838Z,313.07
2019-01-21T09:57:27.861Z,305.77
2019-01-21T09:59:59.577Z,286.50
2019-01-21T10:02:40.477Z,297.73
2019-01-21T10:05:10.533Z,276.87
2019-01-21T10:07:50.463Z,272.50
2019-01-21T10:10:40.593Z,243.13
2019-01-21T10:13:43.302Z,234.83
2019-01-21T10:16:28.782Z,249.00
2019-01-21T10:19:28.931Z,256.57
2019-01-21T10:22:13.775Z,261.57
2019-01-21T10:24:53.522Z,224.33
2019-01-21T10:27:30.975Z,219.67
2019-01-21T10:30:10.782Z,232.70
2019-01-21T10:33:06.029Z,229.50
2019-01-21T10:35:39.763Z,237.47
2019-01-21T10:38:39.119Z,244.97
2019-01-21T10:41:14.875Z,223.73
2019-01-21T10:43:57.437Z,228.57
2019-01-21T10:46:33.492Z,206.10
2019-01-21T10:49:24.645Z,233.60
2019-01-21T10:52:28.637Z,232.37
2019-01-21T10:55:14.079Z,230.03
2019-01-21T10:57:53.128Z,224.77
2019-01-21T11:00:46.865Z,229.73
2019-01-21T11:03:23.527Z,227.17
2019-01-21T11:06:14.448Z,218.23
2019-01-21T11:08:50.532Z,221.33
2019-01-21T11:11:42.211Z,222.30
2019-01-21T11:14:30.176Z,215.33
2019-01-21T11:17:19.907Z,227.77
2019-01-21T11:20:18.975Z,227.33
2019-01-21T11:23:10.904Z,215.13
2019-01-21T11:26:04.456Z,230.63
2019-01-21T11:28:47.145Z,231.10
2019-01-21T11:31:35.628Z,238.50
2019-01-21T11:34:20.603Z,241.93
2019-01-21T11:36:54.349Z,230.03
2019-01-21T11:39:51.253Z,245.23
2019-01-21T11:42:31.849Z,235.50
2019-01-21T11:45:08.419Z,261.53
2019-01-21T11:47:58.200Z,248.47
2019-01-21T11:50:41.457Z,262.37
2019-01-21T11:53:16.374Z,265.13
2019-01-21T11:56:02.219Z,274.90
2019-01-21T11:58:45.104Z,269.07
2019-01-21T12:01:32.067Z,280.37
2019-01-21T12:04:20.806Z,262.50
2019-01-21T12:07:03.012Z,263.93
2019-01-21T12:09:58.049Z,285.17
2019-01-21T12:12:31.203Z,298.53
2019-01-21T12:15:10.455Z,318.83
2019-01-21T12:17:49.626Z,295.03
2019-01-21T12:20:40.768Z,292.67
2019-01-21T12:23:19.716Z,319.87
2019-01-21T12:25:59.631Z,310.50
2019-01-21T12:28:41.451Z,299.47
2019-01-21T12:31:18.005Z,307.13
2019-01-21T12:34:00.027Z,321.13
2019-01-21T12:36:40.825Z,321.10
2019-01-21T12:39:16.628Z,306.30
2019-01-21T12:41:59.131Z,292.23
2019-01-21T12:44:50.298Z,278.60
2019-01-21T12:47:29.908Z,265.30
2019-01-21T12:50:11.724Z,281.53
2019-01-21T12:52:45.458Z,286.93
2019-01-21T12:55:39.583Z,280.40
2019-01-21T12:58:30.576Z,272.13
2019-01-21T13:01:06.407Z,267.77
2019-01-21T13:03:50.133Z,307.07
2019-01-21T13:06:38.459Z,314.87
2019-01-21T13:09:19.461Z,291.20
2019-01-21T13:12:13.991Z,287.20
2019-01-21T13:15:00.424Z,278.93
2019-01-21T13:17:41.126Z,273.30
2019-01-21T13:20:40.085Z,288.17
2019-01-21T13:23:22.678Z,270.33
2019-01-21T13:25:59.335Z,294.70
2019-01-21T13:28:35.348Z,284.50
2019-01-21T13:31:17.370Z,298.60
2019-01-21T13:34:03.198Z,287.03
2019-01-21T13:37:09.349Z,295.00
2019-01-21T13:40:04.511Z,300.27
2019-01-21T13:42:57.427Z,279.77
2019-01-21T13:46:03.519Z,303.77
2019-01-21T13:48:36.870Z,288.73
2019-01-21T13:51:26.341Z,323.47
2019-01-21T13:54:19.100Z,312.07
2019-01-21T13:57:06.387Z,314.03
2019-01-21T13:59:49.476Z,309.53
2019-01-21T14:02:29.075Z,325.67
2019-01-21T14:05:14.543Z,311.47
2019-01-21T14:07:54.833Z,295.00
2019-01-21T14:10:34.787Z,310.83
2019-01-21T14:13:12.109Z,299.57
2019-01-21T14:15:45.539Z,307.70
2019-01-21T14:18:27.844Z,322.63
2019-01-21T14:21:19.669Z,317.27
2019-01-21T14:23:52.576Z,329.13
2019-01-21T14:26:52.001Z,302.20
2019-01-21T14:29:32.408Z,326.33
2019-01-21T14:32:14.292Z,312.73
2019-01-21T14:34:57.322Z,302.20
2019-01-21T14:37:48.574Z,306.57
2019-01-21T14:40:30.319Z,315.70
2019-01-21T14:43:08.402Z,332.87
2019-01-21T14:45:56.100Z,326.00
2019-01-21T14:48:47.266Z,304.20
2019-01-21T14:51:38.783Z,332.03
2019-01-21T14:54:21.017Z,328.80
2019-01-21T14:57:05.482Z,335.77
2019-01-21T14:59:58.200Z,303.10
2019-01-21T15:02:38.511Z,339.57
2019-01-21T15:05:26.725Z,312.67
2019-01-21T15:08:08.971Z,325.17
2019-01-21T15:10:41.857Z,340.17
2019-01-21T15:13:27.366Z,327.60
2019-01-21T15:16:23.522Z,344.70
2019-01-21T15:19:11.151Z,346.07
2019-01-21T15:21:52.399Z,343.20
2019-01-21T15:24:34.824Z,388.97
2019-01-21T15:27:14.469Z,348.53
2019-01-21T15:29:53.673Z,370.87
2019-01-21T15:32:35.753Z,350.57
2019-01-21T15:35:21.515Z,358.93
2019-01-21T15:38:17.934Z,378.20
2019-01-21T15:41:01.257Z,341.97
2019-01-21T15:43:34.671Z,362.53
2019-01-21T15:46:35.901Z,379.10
2019-01-21T15:49:12.462Z,367.60
2019-01-21T15:52:19.158Z,375.20
2019-01-21T15:55:00.536Z,347.97
2019-01-21T15:57:36.736Z,340.87
2019-01-21T16:00:31.924Z,334.97
2019-01-21T16:03:10.832Z,394.50
2019-01-21T16:05:56.119Z,349.07
2019-01-21T16:08:29.710Z,347.03
2019-01-21T16:11:11.701Z,353.33
2019-01-21T16:13:45.427Z,353.00
2019-01-21T16:16:40.262Z,352.80
2019-01-21T16:19:13.565Z,340.67
2019-01-21T16:22:10.671Z,363.40
2019-01-21T16:24:49.646Z,360.13
2019-01-21T16:27:31.977Z,362.63
2019-01-21T16:30:04.872Z,371.27
2019-01-21T16:32:38.180Z,378.50
2019-01-21T16:35:20.365Z,368.73
2019-01-21T16:37:53.291Z,370.07
2019-01-21T16:40:32.422Z,388.40
2019-01-21T16:43:02.497Z,368.83
2019-01-21T16:45:36.496Z,379.67
2019-01-21T16:48:06.587Z,368.47
2019-01-21T16:50:36.757Z,374.13
2019-01-21T16:53:09.520Z,354.70
2019-01-21T16:55:39.935Z,380.07
2019-01-21T16:58:09.920Z,360.77
2019-01-21T17:00:41.200Z,388.93
2019-01-21T17:03:11.224Z,360.60
2019-01-21T17:05:41.600Z,368.37
2019-01-21T17:08:12.003Z,352.90
2019-01-21T17:10:42.201Z,365.83
2019-01-21T17:13:13.180Z,362.47
2019-01-21T17:15:45.902Z,364.03
2019-01-21T17:18:15.880Z,372.67
2019-01-21T17:20:45.883Z,360.03
2019-01-21T17:23:15.898Z,361.80
2019-01-21T17:25:45.784Z,373.03
2019-01-21T17:28:16.440Z,338.97
2019-01-21T17:30:46.319Z,362.47
2019-01-21T17:33:16.230Z,367.60
2019-01-21T17:35:46.298Z,351.53
2019-01-21T17:38:16.360Z,372.03
2019-01-21T17:40:47.558Z,376.57
2019-01-21T17:43:19.444Z,397.97
2019-01-21T17:45:49.478Z,400.97
2019-01-21T17:48:19.600Z,379.10
2019-01-21T17:50:51.012Z,365.97
2019-01-21T17:53:24.286Z,397.57
2019-01-21T17:55:55.234Z,357.40
2019-01-21T17:58:25.732Z,388.43
2019-01-21T18:00:57.949Z,370.67
2019-01-21T18:03:29.118Z,406.73
2019-01-21T18:06:01.044Z,405.00
2019-01-21T18:08:31.861Z,377.97
2019-01-21T18:11:04.976Z,389.80
2019-01-21T18:13:35.024Z,392.97
2019-01-21T18:16:05.581Z,410.33
2019-01-21T18:18:35.834Z,400.97
2019-01-21T18:21:07.499Z,415.27
2019-01-21T18:23:38.168Z,376.97
2019-01-21T18:26:09.440Z,411.07
2019-01-21T18:28:41.033Z,414.07
2019-01-21T18:31:12.104Z,424.63
2019-01-21T18:33:42.488Z,424.37
2019-01-21T18:36:13.920Z,477.63
2019-01-21T18:38:43.954Z,459.87
2019-01-21T18:41:14.093Z,468.40
2019-01-21T18:43:45.563Z,462.73
2019-01-21T18:46:15.700Z,433.87
2019-01-21T18:48:45.871Z,428.13
2019-01-21T18:51:15.973Z,437.77
2019-01-21T18:53:46.519Z,450.10
2019-01-21T18:56:16.568Z,437.03
2019-01-21T18:58:48.152Z,432.73
2019-01-21T19:01:18.480Z,422.37
2019-01-21T19:03:50.296Z,421.87
2019-01-21T19:06:27.382Z,422.70
2019-01-21T19:09:06.078Z,456.43
2019-01-21T19:11:36.722Z,437.27
2019-01-21T19:14:07.104Z,426.47
2019-01-21T19:16:37.220Z,418.77
2019-01-21T19:19:09.415Z,427.33
2019-01-21T19:21:43.801Z,445.20
2019-01-21T19:24:14.921Z,417.47
2019-01-21T19:26:51.024Z,451.50
2019-01-21T19:29:22.719Z,466.63
2019-01-21T19:31:57.123Z,472.57
2019-01-21T19:34:43.032Z,451.80
2019-01-21T19:37:06.793Z,436.97
2019-01-21T19:39:42.417Z,387.33
2019-01-21T19:42:13.695Z,390.87
2019-01-21T19:44:46.720Z,400.73
2019-01-21T19:47:18.991Z,408.77
2019-01-21T19:49:53.501Z,409.57
2019-01-21T19:52:26.575Z,411.33
2019-01-21T19:55:02.522Z,402.30
2019-01-21T19:57:34.822Z,378.77
2019-01-21T20:00:10.616Z,395.90
2019-01-21T20:02:44.483Z,374.10
2019-01-21T20:05:16.842Z,387.63
2019-01-21T20:07:47.762Z,408.17
2019-01-21T20:10:23.152Z,407.57
2019-01-21T20:12:56.432Z,430.60
2019-01-21T20:15:27.581Z,424.20
2019-01-21T20:17:58.480Z,404.00
2019-01-21T20:20:38.926Z,400.80
2019-01-21T20:23:11.272Z,407.77
2019-01-21T20:25:45.763Z,419.23
2019-01-21T20:28:16.440Z,421.03
2019-01-21T20:30:47.560Z,398.43
2019-01-21T20:33:18.068Z,395.77
2019-01-21T20:35:48.289Z,419.20
2019-01-21T20:38:18.754Z,406.37
2019-01-21T20:40:48.982Z,370.70
2019-01-21T20:43:19.360Z,393.50
2019-01-21T20:45:49.760Z,407.73
2019-01-21T20:48:20.199Z,403.40
2019-01-21T20:50:50.750Z,421.83
2019-01-21T20:53:21.192Z,413.13
2019-01-21T20:55:51.679Z,406.30
2019-01-21T20:58:23.680Z,441.93
2019-01-21T21:00:55.479Z,441.87
2019-01-21T21:03:27.720Z,420.27
2019-01-21T21:05:58.553Z,429.87
2019-01-21T21:08:28.841Z,426.67
2019-01-21T21:10:58.834Z,430.80
2019-01-21T21:13:29.600Z,436.60
2019-01-21T21:15:59.992Z,424.63
2019-01-21T21:18:30.072Z,398.67
2019-01-21T21:21:00.419Z,400.30
2019-01-21T21:23:30.661Z,419.87
2019-01-21T21:26:02.641Z,408.93
2019-01-21T21:28:33.132Z,407.10
2019-01-21T21:31:03.222Z,386.17
2019-01-21T21:33:45.920Z,397.50
2019-01-21T21:36:17.119Z,393.50
2019-01-21T21:38:47.869Z,397.77
2019-01-21T21:41:18.800Z,418.63
2019-01-21T21:43:48.920Z,405.80
2019-01-21T21:46:21.159Z,398.13
2019-01-21T21:48:51.419Z,406.83
2019-01-21T21:51:23.866Z,448.43
2019-01-21T21:53:54.152Z,391.40
2019-01-21T21:56:24.279Z,418.70
2019-01-21T21:58:56.216Z,407.43
2019-01-21T22:01:26.220Z,416.07
2019-01-21T22:03:57.256Z,427.60
2019-01-21T22:06:27.383Z,409.50
2019-01-21T22:08:58.329Z,423.93
2019-01-21T22:11:29.759Z,406.37
2019-01-21T22:14:00.138Z,411.00
2019-01-21T22:16:31.244Z,415.00
2019-01-21T22:19:01.621Z,412.97
2019-01-21T22:21:33.486Z,422.47
2019-01-21T22:24:03.834Z,420.23
2019-01-21T22:26:34.072Z,423.23
2019-01-21T22:29:04.086Z,401.87
2019-01-21T22:31:34.402Z,433.43
2019-01-21T22:34:04.862Z,411.43
2019-01-21T22:36:35.341Z,419.00
2019-01-21T22:39:08.417Z,415.00
2019-01-21T22:41:40.342Z,411.33
2019-01-21T22:44:10.456Z,416.13
2019-01-21T22:46:40.570Z,430.70
2019-01-21T22:49:11.016Z,407.63
2019-01-21T22:51:41.453Z,425.97
2019-01-21T22:54:11.815Z,388.43
2019-01-21T22:56:41.989Z,415.00
2019-01-21T22:59:13.775Z,414.53
2019-01-21T23:01:44.659Z,382.40
2019-01-21T23:04:15.936Z,408.30
2019-01-21T23:06:46.725Z,412.63
2019-01-21T23:09:17.501Z,407.63
2019-01-21T23:11:48.218Z,397.33
2019-01-21T23:14:18.439Z,428.97
2019-01-21T23:16:48.447Z,403.40
2019-01-21T23:19:18.784Z,408.33
2019-01-21T23:21:50.628Z,412.10
2019-01-21T23:24:26.650Z,416.70
2019-01-21T23:26:57.080Z,397.97
2019-01-21T23:29:27.302Z,414.37
2019-01-21T23:31:57.302Z,394.63
2019-01-21T23:34:27.798Z,383.93
2019-01-21T23:36:57.835Z,413.73
2019-01-21T23:39:27.883Z,423.83
2019-01-21T23:41:57.946Z,416.13
2019-01-21T23:44:29.470Z,391.10
2019-01-21T23:46:59.701Z,407.87
2019-01-21T23:49:29.712Z,416.80
2019-01-21T23:51:59.757Z,409.33
2019-01-21T23:54:29.829Z,424.30
2019-01-21T23:56:59.860Z,415.30
2019-01-21T23:59:30.268Z,433.90
